sensor_id;sensor_type;location;lat;lon;timestamp;pressure;altitude;pressure_sealevel;temperature;humidity
48216;BME280;34005;48.844;10.098;2023-06-10T00:36:38;96351.38;;;19.63;50.09
48216;BME280;34005;48.844;10.098;2023-06-10T01:15:14;96338.78;;;19.09;51.48
48216;BME280;34005;48.844;10.098;2023-06-10T01:24:05;96334.69;;;19.02;52.50
48216;BME280;34005;48.844;10.098;2023-06-10T01:27:08;96340.78;;;19.02;52.03
48216;BME280;34005;48.844;10.098;2023-06-10T01:57:33;96334.41;;;18.52;53.83
48216;BME280;34005;48.844;10.098;2023-06-10T02:00:15;96348.09;;;18.49;54.12
48216;BME280;34005;48.844;10.098;2023-06-10T02:03:01;96346.94;;;18.45;54.64
48216;BME280;34005;48.844;10.098;2023-06-10T02:08:34;96343.72;;;18.26;54.49
48216;BME280;34005;48.844;10.098;2023-06-10T02:11:02;96345.16;;;18.17;54.84
48216;BME280;34005;48.844;10.098;2023-06-10T02:13:31;96346.09;;;18.11;55.12
48216;BME280;34005;48.844;10.098;2023-06-10T02:15:58;96344.16;;;18.06;55.00
48216;BME280;34005;48.844;10.098;2023-06-10T02:18:26;96343.03;;;18.02;55.44
48216;BME280;34005;48.844;10.098;2023-06-10T02:20:54;96351.25;;;18.06;56.66
48216;BME280;34005;48.844;10.098;2023-06-10T02:23:22;96346.88;;;18.11;56.24
48216;BME280;34005;48.844;10.098;2023-06-10T02:25:49;96345.38;;;18.16;55.64
48216;BME280;34005;48.844;10.098;2023-06-10T02:28:17;96338.47;;;18.15;55.65
48216;BME280;34005;48.844;10.098;2023-06-10T02:30:46;96340.91;;;18.16;55.56
48216;BME280;34005;48.844;10.098;2023-06-10T02:33:14;96334.25;;;18.14;55.69
48216;BME280;34005;48.844;10.098;2023-06-10T02:35:41;96341.84;;;18.10;55.91
48216;BME280;34005;48.844;10.098;2023-06-10T02:38:09;96335.53;;;18.11;56.17
48216;BME280;34005;48.844;10.098;2023-06-10T02:40:36;96348.97;;;18.09;56.02
48216;BME280;34005;48.844;10.098;2023-06-10T02:43:04;96339.91;;;18.05;56.18
48216;BME280;34005;48.844;10.098;2023-06-10T02:45:32;96358.84;;;18.02;56.37
48216;BME280;34005;48.844;10.098;2023-06-10T02:48:00;96350.81;;;17.97;56.74
48216;BME280;34005;48.844;10.098;2023-06-10T02:50:28;96357.94;;;17.97;56.60
48216;BME280;34005;48.844;10.098;2023-06-10T02:52:56;96358.19;;;17.95;56.90
48216;BME280;34005;48.844;10.098;2023-06-10T02:55:23;96362.66;;;17.95;57.17
48216;BME280;34005;48.844;10.098;2023-06-10T02:57:52;96371.41;;;17.95;56.92
48216;BME280;34005;48.844;10.098;2023-06-10T03:00:21;96365.19;;;17.89;57.04
48216;BME280;34005;48.844;10.098;2023-06-10T03:02:48;96365.53;;;17.81;57.46
48216;BME280;34005;48.844;10.098;2023-06-10T03:05:18;96359.94;;;17.78;57.75
48216;BME280;34005;48.844;10.098;2023-06-10T03:07:46;96366.22;;;17.77;57.54
48216;BME280;34005;48.844;10.098;2023-06-10T03:10:14;96361.44;;;17.74;57.96
48216;BME280;34005;48.844;10.098;2023-06-10T03:12:42;96357.66;;;17.69;57.93
48216;BME280;34005;48.844;10.098;2023-06-10T03:15:10;96360.75;;;17.66;58.16
48216;BME280;34005;48.844;10.098;2023-06-10T03:17:38;96371.75;;;17.63;58.23
48216;BME280;34005;48.844;10.098;2023-06-10T03:20:06;96366.50;;;17.63;58.38
48216;BME280;34005;48.844;10.098;2023-06-10T03:22:38;96367.75;;;17.61;58.43
48216;BME280;34005;48.844;10.098;2023-06-10T03:25:07;96371.19;;;17.61;58.44
48216;BME280;34005;48.844;10.098;2023-06-10T03:27:42;96363.28;;;17.61;58.31
48216;BME280;34005;48.844;10.098;2023-06-10T03:30:10;96372.13;;;17.55;58.41
48216;BME280;34005;48.844;10.098;2023-06-10T03:32:38;96375.66;;;17.49;58.64
48216;BME280;34005;48.844;10.098;2023-06-10T03:35:08;96381.88;;;17.43;58.68
48216;BME280;34005;48.844;10.098;2023-06-10T03:37:37;96381.53;;;17.39;59.19
48216;BME280;34005;48.844;10.098;2023-06-10T03:40:06;96376.94;;;17.35;59.20
48216;BME280;34005;48.844;10.098;2023-06-10T03:42:34;96376.38;;;17.33;59.58
48216;BME280;34005;48.844;10.098;2023-06-10T03:45:02;96382.00;;;17.36;59.69
48216;BME280;34005;48.844;10.098;2023-06-10T03:47:33;96386.59;;;17.41;60.03
48216;BME280;34005;48.844;10.098;2023-06-10T03:50:01;96380.25;;;17.42;59.11
48216;BME280;34005;48.844;10.098;2023-06-10T03:52:29;96385.44;;;17.37;59.42
48216;BME280;34005;48.844;10.098;2023-06-10T03:54:58;96386.56;;;17.29;59.54
48216;BME280;34005;48.844;10.098;2023-06-10T03:57:26;96388.88;;;17.25;59.50
48216;BME280;34005;48.844;10.098;2023-06-10T03:59:53;96387.72;;;17.21;59.84
48216;BME280;34005;48.844;10.098;2023-06-10T04:02:21;96392.44;;;17.19;60.04
48216;BME280;34005;48.844;10.098;2023-06-10T04:04:49;96392.44;;;17.19;60.14
48216;BME280;34005;48.844;10.098;2023-06-10T04:07:18;96395.63;;;17.21;59.88
48216;BME280;34005;48.844;10.098;2023-06-10T04:09:46;96394.03;;;17.20;59.97
48216;BME280;34005;48.844;10.098;2023-06-10T04:12:15;96387.94;;;17.20;60.45
48216;BME280;34005;48.844;10.098;2023-06-10T04:14:43;96390.38;;;17.21;60.15
48216;BME280;34005;48.844;10.098;2023-06-10T04:17:10;96394.59;;;17.22;60.27
48216;BME280;34005;48.844;10.098;2023-06-10T04:19:38;96398.84;;;17.23;60.27
48216;BME280;34005;48.844;10.098;2023-06-10T04:22:06;96400.00;;;17.27;61.04
48216;BME280;34005;48.844;10.098;2023-06-10T04:24:33;96402.75;;;17.33;60.73
48216;BME280;34005;48.844;10.098;2023-06-10T04:27:02;96395.41;;;17.35;60.55
48216;BME280;34005;48.844;10.098;2023-06-10T04:29:31;96403.91;;;17.37;60.69
48216;BME280;34005;48.844;10.098;2023-06-10T04:31:58;96401.84;;;17.39;60.52
48216;BME280;34005;48.844;10.098;2023-06-10T04:34:26;96407.44;;;17.42;60.73
48216;BME280;34005;48.844;10.098;2023-06-10T04:36:54;96409.38;;;17.47;60.55
48216;BME280;34005;48.844;10.098;2023-06-10T04:39:22;96406.06;;;17.52;61.07
48216;BME280;34005;48.844;10.098;2023-06-10T04:41:49;96404.91;;;17.59;60.76
48216;BME280;34005;48.844;10.098;2023-06-10T04:44:17;96406.63;;;17.65;60.39
48216;BME280;34005;48.844;10.098;2023-06-10T04:46:46;96412.00;;;17.70;60.54
48216;BME280;34005;48.844;10.098;2023-06-10T04:49:14;96409.72;;;17.74;60.46
48216;BME280;34005;48.844;10.098;2023-06-10T04:51:41;96404.78;;;17.78;60.50
48216;BME280;34005;48.844;10.098;2023-06-10T04:54:09;96399.63;;;17.83;61.01
48216;BME280;34005;48.844;10.098;2023-06-10T04:56:37;96404.56;;;17.91;60.43
48216;BME280;34005;48.844;10.098;2023-06-10T04:59:05;96399.47;;;18.01;60.02
48216;BME280;34005;48.844;10.098;2023-06-10T05:01:33;96407.03;;;18.09;60.09
48216;BME280;34005;48.844;10.098;2023-06-10T05:04:02;96404.03;;;18.18;60.10
48216;BME280;34005;48.844;10.098;2023-06-10T05:06:31;96401.47;;;18.23;59.81
48216;BME280;34005;48.844;10.098;2023-06-10T05:08:58;96409.50;;;18.28;59.65
48216;BME280;34005;48.844;10.098;2023-06-10T05:11:26;96404.31;;;18.33;59.93
48216;BME280;34005;48.844;10.098;2023-06-10T05:13:54;96414.97;;;18.38;59.78
48216;BME280;34005;48.844;10.098;2023-06-10T05:16:21;96413.13;;;18.39;59.75
48216;BME280;34005;48.844;10.098;2023-06-10T05:18:49;96406.47;;;18.36;59.99
48216;BME280;34005;48.844;10.098;2023-06-10T05:21:20;96417.53;;;18.33;60.29
48216;BME280;34005;48.844;10.098;2023-06-10T05:23:47;96412.25;;;18.33;60.41
48216;BME280;34005;48.844;10.098;2023-06-10T05:26:15;96414.41;;;18.36;60.44
48216;BME280;34005;48.844;10.098;2023-06-10T05:28:43;96409.69;;;18.38;60.62
48216;BME280;34005;48.844;10.098;2023-06-10T05:31:11;96413.94;;;18.39;60.87
48216;BME280;34005;48.844;10.098;2023-06-10T05:33:39;96412.09;;;18.40;60.74
48216;BME280;34005;48.844;10.098;2023-06-10T05:36:06;96412.44;;;18.43;60.80
48216;BME280;34005;48.844;10.098;2023-06-10T05:38:35;96415.16;;;18.48;60.91
48216;BME280;34005;48.844;10.098;2023-06-10T05:41:03;96415.25;;;18.53;60.90
48216;BME280;34005;48.844;10.098;2023-06-10T05:43:31;96413.75;;;18.58;60.84
48216;BME280;34005;48.844;10.098;2023-06-10T05:45:58;96421.75;;;18.63;60.92
48216;BME280;34005;48.844;10.098;2023-06-10T05:48:26;96413.38;;;18.66;61.13
48216;BME280;34005;48.844;10.098;2023-06-10T05:50:53;96417.38;;;18.68;61.16
48216;BME280;34005;48.844;10.098;2023-06-10T05:53:21;96412.97;;;18.74;61.15
48216;BME280;34005;48.844;10.098;2023-06-10T05:55:50;96417.88;;;18.82;61.17
48216;BME280;34005;48.844;10.098;2023-06-10T05:58:19;96410.63;;;18.89;60.95
48216;BME280;34005;48.844;10.098;2023-06-10T06:00:47;96405.19;;;18.96;60.93
48216;BME280;34005;48.844;10.098;2023-06-10T06:03:15;96402.94;;;19.05;60.75
48216;BME280;34005;48.844;10.098;2023-06-10T06:05:43;96405.16;;;19.13;60.64
48216;BME280;34005;48.844;10.098;2023-06-10T06:08:12;96414.31;;;19.22;60.31
48216;BME280;34005;48.844;10.098;2023-06-10T06:10:44;96409.16;;;19.32;59.70
48216;BME280;34005;48.844;10.098;2023-06-10T06:13:13;96406.13;;;19.41;58.94
48216;BME280;34005;48.844;10.098;2023-06-10T06:15:40;96406.75;;;19.48;58.42
48216;BME280;34005;48.844;10.098;2023-06-10T06:18:08;96410.03;;;19.55;58.30
48216;BME280;34005;48.844;10.098;2023-06-10T06:20:36;96408.00;;;19.62;58.23
48216;BME280;34005;48.844;10.098;2023-06-10T06:23:03;96406.81;;;19.70;58.15
48216;BME280;34005;48.844;10.098;2023-06-10T06:25:31;96417.31;;;19.82;57.90
48216;BME280;34005;48.844;10.098;2023-06-10T06:27:59;96415.28;;;19.89;57.47
48216;BME280;34005;48.844;10.098;2023-06-10T06:30:28;96416.44;;;19.98;57.49
48216;BME280;34005;48.844;10.098;2023-06-10T06:32:56;96415.22;;;20.06;57.17
48216;BME280;34005;48.844;10.098;2023-06-10T06:35:23;96414.53;;;20.15;56.96
48216;BME280;34005;48.844;10.098;2023-06-10T06:37:51;96414.91;;;20.24;57.03
48216;BME280;34005;48.844;10.098;2023-06-10T06:40:18;96414.47;;;20.32;56.72
48216;BME280;34005;48.844;10.098;2023-06-10T06:42:46;96411.63;;;20.39;56.67
48216;BME280;34005;48.844;10.098;2023-06-10T06:45:14;96419.94;;;20.48;56.03
48216;BME280;34005;48.844;10.098;2023-06-10T06:47:42;96424.78;;;20.56;55.58
48216;BME280;34005;48.844;10.098;2023-06-10T06:50:10;96423.56;;;20.64;55.35
48216;BME280;34005;48.844;10.098;2023-06-10T06:52:38;96429.72;;;20.69;54.49
48216;BME280;34005;48.844;10.098;2023-06-10T06:55:06;96428.97;;;20.74;54.41
48216;BME280;34005;48.844;10.098;2023-06-10T06:57:34;96414.72;;;20.80;53.77
48216;BME280;34005;48.844;10.098;2023-06-10T07:00:03;96426.16;;;20.86;53.43
48216;BME280;34005;48.844;10.098;2023-06-10T07:02:31;96420.16;;;20.95;53.09
48216;BME280;34005;48.844;10.098;2023-06-10T07:05:01;96420.72;;;21.03;52.65
48216;BME280;34005;48.844;10.098;2023-06-10T07:07:29;96421.31;;;21.10;52.69
48216;BME280;34005;48.844;10.098;2023-06-10T07:09:57;96431.47;;;21.18;52.56
48216;BME280;34005;48.844;10.098;2023-06-10T07:12:25;96428.34;;;21.26;51.88
48216;BME280;34005;48.844;10.098;2023-06-10T07:14:52;96430.56;;;21.34;51.52
48216;BME280;34005;48.844;10.098;2023-06-10T07:17:20;96429.28;;;21.42;51.31
48216;BME280;34005;48.844;10.098;2023-06-10T07:19:47;96434.38;;;21.49;51.58
48216;BME280;34005;48.844;10.098;2023-06-10T07:22:17;96433.66;;;21.58;51.45
48216;BME280;34005;48.844;10.098;2023-06-10T07:24:44;96429.72;;;21.66;51.38
48216;BME280;34005;48.844;10.098;2023-06-10T07:29:39;96437.75;;;21.81;50.58
48216;BME280;34005;48.844;10.098;2023-06-10T07:32:07;96431.72;;;21.91;50.43
48216;BME280;34005;48.844;10.098;2023-06-10T07:34:35;96437.59;;;21.98;50.41
48216;BME280;34005;48.844;10.098;2023-06-10T07:37:03;96427.81;;;22.09;49.66
48216;BME280;34005;48.844;10.098;2023-06-10T07:39:32;96433.19;;;22.19;49.44
48216;BME280;34005;48.844;10.098;2023-06-10T07:42:00;96423.91;;;22.27;49.14
48216;BME280;34005;48.844;10.098;2023-06-10T07:44:28;96430.59;;;22.35;49.17
48216;BME280;34005;48.844;10.098;2023-06-10T07:46:55;96431.69;;;22.44;49.14
48216;BME280;34005;48.844;10.098;2023-06-10T07:49:24;96434.88;;;22.51;48.05
48216;BME280;34005;48.844;10.098;2023-06-10T07:51:53;96425.34;;;22.55;47.38
48216;BME280;34005;48.844;10.098;2023-06-10T07:54:21;96430.41;;;22.62;47.00
48216;BME280;34005;48.844;10.098;2023-06-10T07:56:50;96431.72;;;22.65;47.04
48216;BME280;34005;48.844;10.098;2023-06-10T07:59:19;96423.50;;;22.71;46.84
48216;BME280;34005;48.844;10.098;2023-06-10T08:01:46;96431.50;;;22.76;47.01
48216;BME280;34005;48.844;10.098;2023-06-10T08:04:14;96423.53;;;22.81;47.26
48216;BME280;34005;48.844;10.098;2023-06-10T08:20:30;96433.41;;;23.42;45.72
48216;BME280;34005;48.844;10.098;2023-06-10T08:23:25;96436.88;;;23.53;45.59
48216;BME280;34005;48.844;10.098;2023-06-10T08:28:30;96437.13;;;23.62;45.81
48216;BME280;34005;48.844;10.098;2023-06-10T08:33:50;96430.97;;;23.72;45.64
48216;BME280;34005;48.844;10.098;2023-06-10T08:36:25;96440.31;;;23.79;45.16
48216;BME280;34005;48.844;10.098;2023-06-10T08:38:55;96434.16;;;23.84;45.24
48216;BME280;34005;48.844;10.098;2023-06-10T08:41:27;96431.22;;;23.91;45.28
48216;BME280;34005;48.844;10.098;2023-06-10T08:46:36;96444.22;;;24.08;45.35
48216;BME280;34005;48.844;10.098;2023-06-10T08:49:06;96438.03;;;24.17;45.26
48216;BME280;34005;48.844;10.098;2023-06-10T09:03:20;96428.81;;;24.59;44.23
48216;BME280;34005;48.844;10.098;2023-06-10T09:08:45;96418.28;;;24.78;44.10
48216;BME280;34005;48.844;10.098;2023-06-10T11:40:28;96386.75;;;26.64;35.93
48216;BME280;34005;48.844;10.098;2023-06-10T11:43:23;96389.44;;;26.64;36.65
48216;BME280;34005;48.844;10.098;2023-06-10T18:27:23;96408.59;;;23.78;54.61
48216;BME280;34005;48.844;10.098;2023-06-10T18:32:33;96414.22;;;23.56;53.64
48216;BME280;34005;48.844;10.098;2023-06-10T18:40:43;96422.25;;;23.35;54.08
48216;BME280;34005;48.844;10.098;2023-06-10T18:49:05;96432.09;;;23.09;55.22
